Time;durP1;ratioP1;P1;durP2;ratioP2;P2;SDS_P1;SDS_P2;PMS_P1;PMS_P2;Temp;Humidity;BMP_temperature;BMP_pressure;BME280_temperature;BME280_humidity;BME280_pressure;Samples;Min_cycle;Max_cycle;Signal;HPM_P1;HPM_P2
2021/09/29 00:00:38;;;;;;;5.38;3.60;;;8.80;95.10;;;;;;4941736;29;20047;-80
2021/09/29 00:03:06;;;;;;;3.53;3.22;;;8.80;94.90;;;;;;4940456;29;20428;-80
2021/09/29 00:05:34;;;;;;;3.90;3.30;;;8.80;94.80;;;;;;4941296;29;20066;-80
2021/09/29 00:12:33;;;;;;;3.63;3.33;;;8.70;94.80;;;;;;4945382;29;19921;-80
2021/09/29 00:15:00;;;;;;;3.40;2.80;;;8.70;94.80;;;;;;4941525;29;20393;-79
2021/09/29 00:17:28;;;;;;;5.68;2.53;;;8.60;94.70;;;;;;4941340;29;20052;-80
2021/09/29 00:19:55;;;;;;;9.52;2.60;;;8.50;94.50;;;;;;4939236;29;20055;-80
2021/09/29 00:22:23;;;;;;;3.78;2.15;;;8.50;94.50;;;;;;4941406;29;20048;-80
2021/09/29 00:24:50;;;;;;;3.95;2.20;;;8.40;94.20;;;;;;4939289;29;20485;-80
2021/09/29 00:27:18;;;;;;;2.28;2.03;;;8.30;94.30;;;;;;4905535;29;20052;-80
2021/09/29 00:29:48;;;;;;;4.15;2.13;;;8.30;94.40;;;;;;4905203;29;20139;-79
2021/09/29 00:32:18;;;;;;;2.20;1.70;;;8.30;94.70;;;;;;4938837;29;20047;-80
2021/09/29 00:34:46;;;;;;;1.90;1.50;;;8.30;95.00;;;;;;4937972;29;20382;-80
2021/09/29 00:37:13;;;;;;;2.17;0.90;;;8.30;95.10;;;;;;4938061;29;20084;-80
2021/09/29 00:39:41;;;;;;;1.75;1.02;;;8.40;95.00;;;;;;4937851;29;20047;-80
2021/09/29 00:42:10;;;;;;;2.25;1.10;;;8.40;94.70;;;;;;4937181;29;20052;-80
2021/09/29 00:44:38;;;;;;;2.65;0.70;;;8.40;94.50;;;;;;4920909;29;20043;-80
2021/09/29 00:47:06;;;;;;;3.03;0.70;;;8.40;94.00;;;;;;4937872;29;20055;-80
2021/09/29 00:49:33;;;;;;;0.70;0.50;;;8.50;93.60;;;;;;4938456;29;20056;-80
2021/09/29 00:52:01;;;;;;;4.22;0.68;;;8.50;92.90;;;;;;4938303;29;20047;-80
2021/09/29 00:54:30;;;;;;;2.15;0.60;;;8.60;92.30;;;;;;4938038;29;20071;-80
2021/09/29 01:01:32;;;;;;;3.30;0.50;;;8.60;91.60;;;;;;4937766;29;20048;-80
2021/09/29 01:04:01;;;;;;;4.55;0.98;;;8.40;91.40;;;;;;4941875;29;20052;-80
2021/09/29 01:06:41;;;;;;;2.63;0.30;;;8.30;91.30;;;;;;4920794;29;20047;-80
2021/09/29 01:13:56;;;;;;;1.98;0.40;;;8.30;90.90;;;;;;4937595;29;20040;-80
2021/09/29 01:16:26;;;;;;;2.30;0.27;;;8.20;90.70;;;;;;4937098;29;20371;-80
2021/09/29 01:18:58;;;;;;;2.15;0.30;;;8.10;90.60;;;;;;4937678;29;20051;-80
2021/09/29 01:21:31;;;;;;;2.78;0.50;;;8.10;90.50;;;;;;4937746;29;20496;-81
2021/09/29 01:24:15;;;;;;;4.88;0.50;;;8.10;90.50;;;;;;4921252;29;20043;-81
2021/09/29 01:26:45;;;;;;;0.88;0.32;;;7.90;90.60;;;;;;4937937;29;20051;-80
2021/09/29 01:29:15;;;;;;;2.47;0.40;;;7.90;90.70;;;;;;4920108;29;20050;-80
2021/09/29 01:31:45;;;;;;;2.22;0.50;;;7.80;90.70;;;;;;4937196;29;20068;-81
2021/09/29 01:34:13;;;;;;;2.05;0.50;;;7.80;90.80;;;;;;4920773;29;20084;-81
2021/09/29 01:36:43;;;;;;;3.38;0.50;;;7.70;90.80;;;;;;4935515;29;20070;-81
2021/09/29 01:39:13;;;;;;;1.92;0.60;;;7.70;90.80;;;;;;4919891;29;20052;-81
2021/09/29 01:41:41;;;;;;;3.15;0.73;;;7.70;90.80;;;;;;4937385;29;20398;-81
2021/09/29 01:44:09;;;;;;;3.95;0.68;;;7.60;90.90;;;;;;4920035;29;20050;-81
2021/09/29 01:46:38;;;;;;;2.28;0.60;;;7.60;91.00;;;;;;4919206;29;20421;-81
2021/09/29 01:49:16;;;;;;;2.13;0.80;;;7.60;91.00;;;;;;4936495;29;20402;-81
2021/09/29 01:51:47;;;;;;;3.38;0.80;;;7.50;91.10;;;;;;4936926;29;20052;-81
2021/09/29 01:54:16;;;;;;;2.33;0.93;;;7.50;91.10;;;;;;4918992;29;20051;-81
2021/09/29 01:56:45;;;;;;;4.00;0.90;;;7.50;91.20;;;;;;4938889;29;20063;-82
2021/09/29 01:59:13;;;;;;;2.13;0.80;;;7.40;91.30;;;;;;4938556;29;20054;-82
2021/09/29 02:01:42;;;;;;;3.65;0.80;;;7.30;91.50;;;;;;4937094;29;20525;-81
2021/09/29 02:04:11;;;;;;;2.30;0.65;;;7.30;91.50;;;;;;4936580;29;20051;-81
2021/09/29 02:11:12;;;;;;;3.13;0.50;;;7.30;91.80;;;;;;4936325;29;20034;-81
2021/09/29 02:13:40;;;;;;;5.32;0.85;;;7.30;91.70;;;;;;4918986;29;20067;-81
2021/09/29 02:16:08;;;;;;;4.22;0.70;;;7.30;91.70;;;;;;4936321;29;20047;-81
2021/09/29 02:18:35;;;;;;;8.77;0.73;;;7.30;91.60;;;;;;4935526;29;20059;-81
2021/09/29 02:21:03;;;;;;;0.30;0.30;;;7.30;91.60;;;;;;4918775;29;20055;-81
2021/09/29 02:23:31;;;;;;;1.17;0.45;;;7.30;91.50;;;;;;4936573;29;20051;-83
2021/09/29 02:25:58;;;;;;;1.55;0.80;;;7.40;91.30;;;;;;4936083;29;20405;-81
2021/09/29 02:28:27;;;;;;;2.33;0.60;;;7.50;91.10;;;;;;4936251;29;20043;-81
2021/09/29 02:30:54;;;;;;;1.95;0.50;;;7.60;91.10;;;;;;4936577;29;20051;-82
2021/09/29 02:33:22;;;;;;;1.52;0.60;;;7.60;91.00;;;;;;4934736;29;20043;-81
2021/09/29 02:35:49;;;;;;;3.05;0.50;;;7.60;90.90;;;;;;4936476;29;20501;-82
2021/09/29 02:38:17;;;;;;;1.15;0.70;;;7.70;90.80;;;;;;4936263;29;20059;-81
2021/09/29 02:40:44;;;;;;;2.22;0.60;;;7.70;90.60;;;;;;4935107;29;20368;-82
2021/09/29 02:43:12;;;;;;;3.10;0.70;;;7.70;90.40;;;;;;4918747;29;20039;-82
2021/09/29 02:45:40;;;;;;;3.30;0.50;;;7.70;90.30;;;;;;4935974;29;20047;-82
2021/09/29 02:48:07;;;;;;;2.70;0.43;;;7.80;90.20;;;;;;4936213;29;20055;-81
2021/09/29 02:50:35;;;;;;;1.90;0.70;;;7.80;90.20;;;;;;4918547;29;20055;-82
2021/09/29 02:57:34;;;;;;;4.25;0.77;;;7.70;90.30;;;;;;4919071;29;20050;-82
2021/09/29 03:00:03;;;;;;;2.67;0.63;;;7.70;90.50;;;;;;4935833;29;20055;-81
2021/09/29 03:02:30;;;;;;;0.85;0.20;;;7.70;90.60;;;;;;4935597;29;20052;-82
2021/09/29 03:04:58;;;;;;;2.35;0.57;;;7.60;90.70;;;;;;4934776;29;20054;-82
2021/09/29 03:07:26;;;;;;;8.05;0.68;;;7.70;90.60;;;;;;4935326;29;20054;-82
2021/09/29 03:09:53;;;;;;;1.50;0.30;;;7.70;90.60;;;;;;4936483;29;20055;-82
2021/09/29 03:12:21;;;;;;;4.22;0.50;;;7.70;90.60;;;;;;4918427;29;20478;-82
2021/09/29 03:14:48;;;;;;;1.63;0.50;;;7.70;90.40;;;;;;4919010;29;20051;-82
2021/09/29 03:17:16;;;;;;;4.13;1.05;;;7.70;90.40;;;;;;4935939;29;20055;-82
2021/09/29 03:19:43;;;;;;;3.00;0.68;;;7.70;90.40;;;;;;4937689;29;20047;-81
2021/09/29 03:22:11;;;;;;;1.20;0.40;;;7.70;90.40;;;;;;4920873;29;20058;-82
2021/09/29 03:29:12;;;;;;;5.20;0.70;;;7.70;90.60;;;;;;4935037;29;20028;-81
2021/09/29 03:31:40;;;;;;;3.15;0.77;;;7.70;90.60;;;;;;4935487;29;20048;-81
2021/09/29 03:34:08;;;;;;;4.65;1.00;;;7.70;90.70;;;;;;4917750;29;20060;-80
2021/09/29 03:41:10;;;;;;;4.20;0.88;;;7.70;90.80;;;;;;4935615;29;20501;-77
2021/09/29 03:43:40;;;;;;;4.80;0.90;;;7.60;91.00;;;;;;4935741;29;20056;-77
2021/09/29 03:46:07;;;;;;;2.70;0.98;;;7.60;91.10;;;;;;4918102;29;20489;-76
2021/09/29 03:48:35;;;;;;;5.43;1.00;;;7.60;91.20;;;;;;4918539;29;20055;-75
2021/09/29 03:51:03;;;;;;;2.53;0.90;;;7.50;91.30;;;;;;4933825;29;20401;-76
2021/09/29 03:53:34;;;;;;;5.90;1.00;;;7.50;91.40;;;;;;4935117;29;20110;-76
2021/09/29 04:00:34;;;;;;;2.47;0.82;;;7.50;91.50;;;;;;4936371;29;20059;-76
2021/09/29 04:03:02;;;;;;;6.47;1.02;;;7.30;91.60;;;;;;4937153;29;20055;-76
2021/09/29 04:05:30;;;;;;;2.28;0.95;;;7.30;91.70;;;;;;4938394;29;20504;-75
2021/09/29 04:07:58;;;;;;;4.70;0.88;;;7.30;91.80;;;;;;4938335;29;20063;-76
2021/09/29 04:10:25;;;;;;;7.55;1.25;;;7.30;91.90;;;;;;4939125;29;20070;-76
2021/09/29 04:12:53;;;;;;;5.40;1.40;;;7.30;92.00;;;;;;4938836;29;20052;-76
2021/09/29 04:15:20;;;;;;;3.97;1.00;;;7.40;92.10;;;;;;4937847;29;20063;-75
2021/09/29 04:17:48;;;;;;;7.47;1.17;;;7.40;92.20;;;;;;4938153;29;20055;-75
2021/09/29 04:20:16;;;;;;;5.50;0.98;;;7.50;92.10;;;;;;4920617;29;20060;-74
2021/09/29 04:22:43;;;;;;;3.47;0.85;;;7.50;92.10;;;;;;4937971;29;20056;-74
2021/09/29 04:25:11;;;;;;;2.40;0.63;;;7.60;92.00;;;;;;4921508;29;20482;-74
2021/09/29 04:27:39;;;;;;;2.60;0.80;;;7.60;91.80;;;;;;4938236;29;20485;-74
2021/09/29 04:30:07;;;;;;;1.50;0.73;;;7.70;91.70;;;;;;4920675;29;20056;-73
2021/09/29 04:32:34;;;;;;;2.22;1.20;;;7.70;91.50;;;;;;4920396;29;20540;-73
2021/09/29 04:35:02;;;;;;;1.70;1.20;;;7.70;91.50;;;;;;4938386;29;20051;-72
2021/09/29 04:37:29;;;;;;;3.30;1.02;;;7.70;91.60;;;;;;4936550;29;20142;-72
2021/09/29 04:39:57;;;;;;;5.18;1.05;;;7.70;91.60;;;;;;4937696;29;20056;-73
2021/09/29 04:42:24;;;;;;;5.43;1.65;;;7.70;91.70;;;;;;4938355;29;20052;-72
2021/09/29 04:44:52;;;;;;;2.67;0.82;;;7.70;91.80;;;;;;4937566;29;20044;-72
2021/09/29 04:47:19;;;;;;;3.65;1.00;;;7.70;91.90;;;;;;4937369;29;20047;-72
2021/09/29 04:49:47;;;;;;;4.53;1.05;;;7.70;92.00;;;;;;4937571;29;20066;-73
2021/09/29 04:52:14;;;;;;;2.15;0.63;;;7.70;92.00;;;;;;4938258;29;20044;-73
2021/09/29 04:54:43;;;;;;;3.25;0.63;;;7.70;92.10;;;;;;4937594;29;20508;-73
2021/09/29 04:57:10;;;;;;;4.47;0.95;;;7.70;92.00;;;;;;4937834;29;20051;-73
2021/09/29 04:59:38;;;;;;;3.72;1.10;;;7.70;91.90;;;;;;4937958;29;20054;-74
2021/09/29 05:02:09;;;;;;;3.83;0.88;;;7.70;91.80;;;;;;4937377;29;20501;-74
2021/09/29 05:04:38;;;;;;;4.63;0.80;;;7.60;91.80;;;;;;4937495;29;20055;-75
2021/09/29 05:07:05;;;;;;;5.18;0.80;;;7.60;91.80;;;;;;4921464;29;20359;-75
2021/09/29 05:09:33;;;;;;;2.13;0.63;;;7.60;91.70;;;;;;4921120;29;20047;-75
2021/09/29 05:12:22;;;;;;;3.50;1.08;;;7.60;91.70;;;;;;4919278;29;20056;-75
2021/09/29 05:14:50;;;;;;;3.08;0.82;;;7.60;91.60;;;;;;4937435;29;20055;-75
2021/09/29 05:17:18;;;;;;;2.10;0.73;;;7.60;91.40;;;;;;4920066;29;20148;-76
2021/09/29 05:19:45;;;;;;;2.97;0.70;;;7.60;91.30;;;;;;4921788;29;20059;-77
2021/09/29 05:22:13;;;;;;;2.45;1.10;;;7.60;91.20;;;;;;4939213;29;20051;-77
2021/09/29 05:24:41;;;;;;;9.75;1.30;;;7.60;91.20;;;;;;4937429;29;20044;-77
2021/09/29 05:27:08;;;;;;;5.55;0.80;;;7.50;91.30;;;;;;4936538;29;20055;-77
2021/09/29 05:29:42;;;;;;;4.20;0.73;;;7.50;91.40;;;;;;4919281;29;20058;-77
2021/09/29 05:32:12;;;;;;;4.28;0.82;;;7.60;91.50;;;;;;4920657;29;20048;-77
2021/09/29 05:34:40;;;;;;;3.25;1.00;;;7.60;91.40;;;;;;4936492;29;20494;-77
2021/09/29 05:37:08;;;;;;;3.63;0.85;;;7.60;91.50;;;;;;4936863;29;20048;-77
2021/09/29 05:39:35;;;;;;;3.50;0.50;;;7.60;91.50;;;;;;4937236;29;20052;-76
2021/09/29 05:42:03;;;;;;;7.90;1.02;;;7.60;91.60;;;;;;4904250;29;20044;-75
2021/09/29 05:44:32;;;;;;;7.90;1.17;;;7.60;91.60;;;;;;4919135;29;20052;-76
2021/09/29 05:47:00;;;;;;;3.85;0.82;;;7.60;91.70;;;;;;4919595;29;20043;-75
2021/09/29 05:49:27;;;;;;;4.30;1.00;;;7.60;91.80;;;;;;4919970;29;20054;-74
2021/09/29 05:51:55;;;;;;;4.35;0.57;;;7.60;91.90;;;;;;4935988;29;20048;-74
2021/09/29 05:54:23;;;;;;;5.68;0.90;;;7.70;92.00;;;;;;4936730;29;20051;-73
2021/09/29 05:56:50;;;;;;;6.50;0.80;;;7.60;92.00;;;;;;4920070;29;20048;-73
2021/09/29 05:59:18;;;;;;;2.67;0.80;;;7.70;92.10;;;;;;4936307;29;20054;-72
2021/09/29 06:01:46;;;;;;;3.83;0.80;;;7.70;92.20;;;;;;4918670;29;20056;-72
2021/09/29 06:04:13;;;;;;;4.38;1.02;;;7.70;92.20;;;;;;4936050;29;20048;-72
2021/09/29 06:06:42;;;;;;;3.10;0.98;;;7.70;92.30;;;;;;4902835;29;20062;-72
2021/09/29 06:09:09;;;;;;;5.63;0.93;;;7.60;92.40;;;;;;4936958;29;20055;-73
2021/09/29 06:11:37;;;;;;;4.47;0.95;;;7.70;92.50;;;;;;4918971;29;20054;-72
2021/09/29 06:14:06;;;;;;;7.75;1.52;;;7.70;92.60;;;;;;4936196;29;20059;-72
2021/09/29 06:16:41;;;;;;;4.32;1.13;;;7.70;92.60;;;;;;4918923;29;20052;-76
2021/09/29 06:19:10;;;;;;;4.20;1.70;;;7.70;92.70;;;;;;4936228;29;20047;-72
2021/09/29 06:21:38;;;;;;;8.73;1.60;;;7.70;92.90;;;;;;4934851;29;20051;-72
2021/09/29 06:24:05;;;;;;;6.10;1.40;;;7.80;93.00;;;;;;4935386;29;20374;-73
2021/09/29 06:26:33;;;;;;;4.80;1.23;;;7.80;93.00;;;;;;4935815;29;20051;-73
2021/09/29 06:29:01;;;;;;;2.58;0.80;;;7.80;93.00;;;;;;4918421;29;20413;-72
2021/09/29 06:31:28;;;;;;;7.25;1.02;;;7.80;93.10;;;;;;4935838;29;20058;-71
2021/09/29 06:33:56;;;;;;;3.05;0.80;;;7.80;93.00;;;;;;4935657;29;20044;-72
2021/09/29 06:36:24;;;;;;;3.97;0.70;;;7.90;92.80;;;;;;4936150;29;20052;-72
2021/09/29 06:38:52;;;;;;;51.20;2.75;;;7.90;92.80;;;;;;4935135;29;20056;-72
2021/09/29 06:41:19;;;;;;;6.57;0.95;;;7.90;92.80;;;;;;4918228;29;20517;-72
2021/09/29 06:43:47;;;;;;;5.72;1.20;;;7.90;92.70;;;;;;4918490;29;20518;-72
2021/09/29 06:46:15;;;;;;;7.65;1.27;;;7.90;92.60;;;;;;4934837;29;20054;-72
2021/09/29 06:48:42;;;;;;;13.27;1.20;;;7.90;92.50;;;;;;4935413;29;20396;-71
2021/09/29 06:51:10;;;;;;;5.10;1.13;;;7.90;92.20;;;;;;4935560;29;20421;-71
2021/09/29 06:53:39;;;;;;;4.40;0.65;;;7.90;92.00;;;;;;4935900;29;20397;-71
2021/09/29 06:56:06;;;;;;;6.32;0.70;;;7.90;92.00;;;;;;4918344;29;20498;-72
2021/09/29 06:58:34;;;;;;;3.60;0.50;;;7.90;92.00;;;;;;4935967;29;20055;-71
2021/09/29 07:01:02;;;;;;;5.65;0.75;;;7.90;92.00;;;;;;4936003;29;20047;-71
2021/09/29 07:03:30;;;;;;;8.43;1.17;;;7.90;92.10;;;;;;4918958;29;20063;-72
2021/09/29 07:05:57;;;;;;;4.32;1.15;;;7.90;92.20;;;;;;4935528;29;20048;-72
2021/09/29 07:08:25;;;;;;;11.05;1.98;;;7.90;92.20;;;;;;4935956;29;20051;-72
2021/09/29 07:10:53;;;;;;;5.75;0.85;;;7.90;92.30;;;;;;4935903;29;20074;-73
2021/09/29 07:13:21;;;;;;;13.10;1.38;;;7.90;92.20;;;;;;4918047;29;20067;-73
2021/09/29 07:15:49;;;;;;;5.97;1.35;;;8.00;92.20;;;;;;4935776;29;20044;-74
2021/09/29 07:18:17;;;;;;;3.70;1.00;;;8.00;92.20;;;;;;4935430;29;20501;-74
2021/09/29 07:25:21;;;;;;;4.45;0.90;;;8.00;92.30;;;;;;4917969;29;20054;-71
2021/09/29 07:27:49;;;;;;;9.82;0.77;;;8.00;92.30;;;;;;4919235;29;20055;-72
2021/09/29 07:30:17;;;;;;;6.10;0.73;;;8.00;92.30;;;;;;4935818;29;20331;-73
2021/09/29 07:32:46;;;;;;;5.15;0.90;;;8.00;92.30;;;;;;4933978;29;20059;-73
2021/09/29 07:35:14;;;;;;;6.47;0.90;;;8.00;92.50;;;;;;4938434;29;20059;-74
2021/09/29 07:37:41;;;;;;;8.13;0.90;;;8.10;92.50;;;;;;4939457;29;20051;-73
2021/09/29 07:40:09;;;;;;;6.05;0.80;;;8.10;92.40;;;;;;4939015;29;20529;-73
2021/09/29 07:42:38;;;;;;;12.68;1.45;;;8.20;92.50;;;;;;4937739;29;20056;-71
2021/09/29 07:45:07;;;;;;;4.35;0.95;;;8.20;92.40;;;;;;4939007;29;20054;-72
2021/09/29 07:47:35;;;;;;;5.38;0.90;;;8.30;92.30;;;;;;4939131;29;20051;-71
2021/09/29 07:54:38;;;;;;;4.93;0.82;;;8.30;92.10;;;;;;4921604;29;20036;-70
2021/09/29 07:57:05;;;;;;;13.70;0.85;;;8.30;92.00;;;;;;4937412;29;20055;-71
2021/09/29 07:59:33;;;;;;;8.35;1.13;;;8.30;91.50;;;;;;4938878;29;20048;-71
2021/09/29 08:02:01;;;;;;;4.88;0.90;;;8.30;91.50;;;;;;4938821;29;20406;-70
2021/09/29 08:04:28;;;;;;;6.45;0.85;;;8.40;91.40;;;;;;4938097;29;20043;-70
2021/09/29 08:06:56;;;;;;;5.13;0.90;;;8.40;91.40;;;;;;4939256;29;20048;-70
2021/09/29 08:09:24;;;;;;;8.40;1.23;;;8.40;91.50;;;;;;4921620;29;20044;-70
2021/09/29 08:11:51;;;;;;;8.93;1.10;;;8.40;91.50;;;;;;4938566;29;20056;-70
2021/09/29 08:14:19;;;;;;;3.85;0.85;;;8.40;91.70;;;;;;4921527;29;20406;-71
2021/09/29 08:16:47;;;;;;;6.78;1.15;;;8.40;91.80;;;;;;4938589;29;20055;-70
2021/09/29 08:19:15;;;;;;;10.93;1.27;;;8.40;91.60;;;;;;4938360;29;20048;-70
2021/09/29 08:21:47;;;;;;;9.50;1.05;;;8.30;91.80;;;;;;4938437;29;20067;-70
2021/09/29 08:24:21;;;;;;;7.65;0.88;;;8.30;91.80;;;;;;4938424;29;20054;-70
2021/09/29 08:34:20;;;;;;;10.90;1.52;;;8.40;92.00;;;;;;4920754;29;20474;-70
2021/09/29 08:37:18;;;;;;;7.60;1.38;;;8.40;92.10;;;;;;4938000;29;20056;-70
2021/09/29 08:40:02;;;;;;;8.05;1.00;;;8.40;92.20;;;;;;4920752;29;20054;-70
2021/09/29 08:45:40;;;;;;;4.60;0.95;;;8.50;92.20;;;;;;4920605;29;20043;-70
2021/09/29 08:48:25;;;;;;;7.72;0.85;;;8.50;92.00;;;;;;4921475;29;20052;-70
2021/09/29 09:17:44;;;;;;;10.55;1.08;;;9.10;91.30;;;;;;4937930;29;20110;-72
2021/09/29 09:20:17;;;;;;;2.85;0.85;;;9.20;91.10;;;;;;4920543;29;20162;-72
2021/09/29 09:22:56;;;;;;;4.43;0.90;;;9.30;90.90;;;;;;4938692;29;20043;-71
2021/09/29 09:25:37;;;;;;;8.45;1.10;;;9.30;90.90;;;;;;4937969;29;20048;-72
2021/09/29 09:28:08;;;;;;;6.32;0.85;;;9.30;90.70;;;;;;4937517;29;20125;-71
2021/09/29 09:30:37;;;;;;;12.45;1.58;;;9.40;90.80;;;;;;4919648;29;20074;-70
2021/09/29 09:33:05;;;;;;;13.13;1.73;;;9.50;90.30;;;;;;4937088;29;20059;-71
2021/09/29 09:35:43;;;;;;;7.18;0.80;;;9.50;90.00;;;;;;4936269;29;20064;-71
2021/09/29 09:38:20;;;;;;;4.95;1.00;;;9.50;89.80;;;;;;4937151;29;20047;-71
2021/09/29 09:40:56;;;;;;;6.50;1.00;;;9.50;89.50;;;;;;4937652;29;20044;-72
2021/09/29 09:43:25;;;;;;;9.25;1.35;;;9.40;89.30;;;;;;4920741;29;20052;-71
2021/09/29 09:45:53;;;;;;;11.65;1.20;;;9.40;89.30;;;;;;4937355;29;20063;-72
2021/09/29 09:48:26;;;;;;;5.75;0.60;;;9.50;89.60;;;;;;4937430;29;20055;-71
2021/09/29 09:51:03;;;;;;;3.22;0.82;;;9.60;89.80;;;;;;4937279;29;20043;-72
2021/09/29 09:53:31;;;;;;;7.57;0.73;;;9.80;89.80;;;;;;4937459;29;20054;-72
2021/09/29 09:55:59;;;;;;;4.90;0.77;;;10.00;89.30;;;;;;4937385;29;20058;-73
2021/09/29 09:58:43;;;;;;;3.90;0.60;;;10.10;88.90;;;;;;4936404;29;20394;-74
2021/09/29 10:01:18;;;;;;;4.82;0.70;;;10.20;88.20;;;;;;4936966;29;20048;-73
2021/09/29 10:03:48;;;;;;;7.38;0.93;;;10.20;87.50;;;;;;4937192;29;20472;-73
2021/09/29 10:06:16;;;;;;;8.77;0.70;;;10.10;87.30;;;;;;4919447;29;20055;-73
2021/09/29 10:08:49;;;;;;;7.32;0.82;;;10.10;86.80;;;;;;4919765;29;20048;-74
2021/09/29 10:11:24;;;;;;;;;;;10.10;87.10;;;;;;4937087;29;20501;-76
2021/09/29 10:14:20;;;;;;;2.78;0.60;;;10.10;86.80;;;;;;4935420;29;20027;-75
2021/09/29 10:28:40;;;;;;;6.03;0.93;;;10.40;86.30;;;;;;4936423;29;20052;-74
2021/09/29 10:42:55;;;;;;;7.97;0.93;;;11.30;84.30;;;;;;4877484;29;20491;-77
2021/09/29 11:30:56;;;;;;;7.72;1.27;;;13.10;77.70;;;;;;4804982;29;20066;-82
2021/09/29 11:33:36;;;;;;;8.48;1.20;;;13.10;76.80;;;;;;4804358;29;20417;-82
2021/09/29 11:36:21;;;;;;;4.70;0.80;;;13.10;77.30;;;;;;4804129;29;20525;-81
2021/09/29 12:16:05;;;;;;;8.13;1.17;;;15.30;63.00;;;;;;4916432;29;20052;-82
2021/09/29 12:18:32;;;;;;;6.70;1.15;;;14.30;65.80;;;;;;4916633;29;20052;-81
2021/09/29 12:21:01;;;;;;;10.45;1.05;;;14.00;69.00;;;;;;4917081;29;20490;-82
2021/09/29 12:23:28;;;;;;;7.97;1.42;;;14.20;68.90;;;;;;4886560;29;20051;-81
2021/09/29 12:26:22;;;;;;;15.93;1.58;;;14.60;69.00;;;;;;4902727;29;20048;-81
2021/09/29 12:29:26;;;;;;;7.53;1.08;;;15.00;67.90;;;;;;4887112;29;20067;-81
2021/09/29 12:34:27;;;;;;;14.80;1.60;;;15.50;64.20;;;;;;4918476;29;20056;-81
2021/09/29 12:37:05;;;;;;;6.40;1.25;;;15.90;61.80;;;;;;4919617;29;20052;-81
2021/09/29 12:39:33;;;;;;;7.88;1.42;;;16.10;60.60;;;;;;4903279;29;20048;-80
2021/09/29 12:42:26;;;;;;;;;;;15.70;58.90;;;;;;4903263;29;20052;-81
2021/09/29 12:44:54;;;;;;;7.80;1.35;;;15.00;61.30;;;;;;4901368;29;20401;-80
2021/09/29 12:47:57;;;;;;;8.20;1.50;;;15.10;64.00;;;;;;4918938;29;20048;-80
2021/09/29 12:50:17;;;;;;;;;;;15.70;61.20;;;;;;4916268;29;20075;-81
2021/09/29 12:52:57;;;;;;;11.35;1.23;;;15.90;60.10;;;;;;4919107;29;20017;-81
2021/09/29 12:55:33;;;;;;;9.00;1.40;;;15.40;60.20;;;;;;4919009;29;20048;-81
2021/09/29 13:02:32;;;;;;;7.80;1.35;;;15.40;62.00;;;;;;4919110;29;20386;-80
2021/09/29 13:05:00;;;;;;;4.43;1.00;;;16.00;59.10;;;;;;4918771;29;20056;-79
2021/09/29 13:07:27;;;;;;;7.45;1.38;;;16.30;57.40;;;;;;4885657;29;20075;-81
2021/09/29 13:09:55;;;;;;;6.90;1.45;;;16.50;58.40;;;;;;4901244;29;20075;-82
2021/09/29 13:17:13;;;;;;;8.93;1.10;;;16.60;54.30;;;;;;4925306;29;20055;-82
2021/09/29 13:39:38;;;;;;;7.70;1.10;;;16.20;52.70;;;;;;4859990;29;20034;-82
2021/09/29 13:42:06;;;;;;;10.52;1.42;;;15.30;56.00;;;;;;4859531;29;20181;-81
2021/09/29 13:44:33;;;;;;;6.50;1.27;;;14.80;57.70;;;;;;4878244;29;20057;-78
2021/09/29 13:47:01;;;;;;;7.15;1.10;;;14.10;61.70;;;;;;4861986;29;20060;-72
2021/09/29 13:49:30;;;;;;;3.15;0.80;;;13.10;64.00;;;;;;4861807;29;20498;-71
2021/09/29 13:51:58;;;;;;;4.25;0.77;;;12.10;67.10;;;;;;4878259;29;20162;-70
2021/09/29 13:54:26;;;;;;;3.80;0.68;;;11.50;68.80;;;;;;4878040;29;20060;-70
2021/09/29 13:57:10;;;;;;;3.33;0.65;;;11.00;70.20;;;;;;4878185;29;20566;-71
2021/09/29 14:29:53;;;;;;;11.23;1.65;;;18.60;54.50;;;;;;4936237;29;20058;-77
2021/09/29 14:32:25;;;;;;;8.00;2.20;;;18.80;52.90;;;;;;4936542;29;20055;-74
2021/09/29 14:39:26;;;;;;;8.10;1.40;;;18.70;48.00;;;;;;4936136;29;20366;-77
2021/09/29 14:41:54;;;;;;;14.77;1.73;;;18.20;47.10;;;;;;4935138;29;20100;-77
2021/09/29 14:44:22;;;;;;;7.80;1.45;;;18.30;48.80;;;;;;4918067;29;20055;-78
2021/09/29 14:46:49;;;;;;;10.73;2.03;;;18.70;47.50;;;;;;4935689;29;20454;-78
2021/09/29 14:53:55;;;;;;;10.13;1.92;;;19.30;46.70;;;;;;4917998;29;20401;-78
2021/09/29 14:56:25;;;;;;;6.80;1.42;;;19.70;43.50;;;;;;4918278;29;20490;-77
2021/09/29 14:58:54;;;;;;;13.35;1.85;;;19.70;43.10;;;;;;4934583;29;20048;-78
2021/09/29 15:01:23;;;;;;;5.90;1.42;;;19.70;43.40;;;;;;4935142;29;20355;-78
2021/09/29 15:03:54;;;;;;;9.02;1.83;;;19.80;42.50;;;;;;4935145;29;20386;-77
2021/09/29 15:06:23;;;;;;;9.00;1.63;;;19.80;41.40;;;;;;4903262;29;20059;-77
2021/09/29 15:08:51;;;;;;;6.80;1.33;;;19.70;40.80;;;;;;4935592;29;20052;-77
2021/09/29 15:11:21;;;;;;;8.35;1.50;;;19.40;41.00;;;;;;4918835;29;20043;-77
2021/09/29 15:14:00;;;;;;;9.80;1.77;;;18.70;42.20;;;;;;4935470;29;20040;-78
2021/09/29 15:16:43;;;;;;;11.20;1.52;;;17.90;43.90;;;;;;4902329;29;20509;-79
2021/09/29 15:19:29;;;;;;;9.40;2.05;;;17.80;44.70;;;;;;4937659;29;20055;-77
2021/09/29 15:25:04;;;;;;;7.85;1.65;;;17.10;46.50;;;;;;4935844;29;20409;-78
2021/09/29 15:47:23;;;;;;;8.02;1.63;;;17.00;46.90;;;;;;4935175;29;20506;-78
2021/09/29 15:52:29;;;;;;;8.38;1.30;;;17.60;45.90;;;;;;4935602;29;19922;-78
2021/09/29 16:00:40;;;;;;;9.15;1.55;;;18.00;45.40;;;;;;4938983;29;20047;-79
2021/09/29 16:23:50;;;;;;;9.85;1.58;;;17.60;45.30;;;;;;4939029;29;20063;-77
2021/09/29 16:31:58;;;;;;;7.82;1.60;;;17.60;46.10;;;;;;4938514;29;20060;-78
2021/09/29 16:34:34;;;;;;;9.35;1.50;;;16.90;47.00;;;;;;4920694;29;20047;-78
2021/09/29 16:41:33;;;;;;;11.95;1.92;;;15.40;49.40;;;;;;4921304;29;20035;-77
2021/09/29 16:44:01;;;;;;;8.23;1.65;;;14.60;51.10;;;;;;4921914;29;20051;-69
2021/09/29 16:46:32;;;;;;;9.27;1.45;;;14.10;52.00;;;;;;4904910;29;20051;-71
2021/09/29 16:49:00;;;;;;;9.52;1.17;;;13.70;53.40;;;;;;4937670;29;20375;-74
2021/09/29 16:56:01;;;;;;;12.00;1.70;;;13.20;56.00;;;;;;4938306;29;20028;-73
2021/09/29 17:01:16;;;;;;;8.38;1.45;;;12.80;58.00;;;;;;4936941;29;20063;-74
2021/09/29 17:03:45;;;;;;;7.95;1.60;;;12.70;58.60;;;;;;4937958;29;20047;-73
2021/09/29 17:06:14;;;;;;;11.20;1.85;;;12.60;59.20;;;;;;4920718;29;20067;-73
2021/09/29 17:08:41;;;;;;;13.50;1.65;;;12.40;59.70;;;;;;4937924;29;20043;-73
2021/09/29 17:11:11;;;;;;;4.47;1.15;;;12.30;60.10;;;;;;4921212;29;20058;-73
2021/09/29 17:13:41;;;;;;;9.95;1.50;;;12.30;60.60;;;;;;4920223;29;20067;-73
2021/09/29 17:16:22;;;;;;;10.15;1.73;;;12.20;61.10;;;;;;4905516;29;20051;-74
2021/09/29 17:18:51;;;;;;;8.27;1.70;;;12.00;61.60;;;;;;4939581;29;20059;-74
2021/09/29 17:21:21;;;;;;;16.08;1.83;;;11.90;62.30;;;;;;4937786;29;20048;-74
2021/09/29 17:28:21;;;;;;;8.38;1.40;;;11.70;63.70;;;;;;4936576;29;20077;-73
2021/09/29 17:30:58;;;;;;;11.35;1.42;;;11.60;64.00;;;;;;4936729;29;20054;-73
2021/09/29 17:33:32;;;;;;;;;;;11.40;64.60;;;;;;4920371;29;20055;-73
2021/09/29 17:53:54;;;;;;;14.38;1.40;;;10.60;69.50;;;;;;4937122;29;20039;-73
2021/09/29 17:56:22;;;;;;;9.95;1.75;;;10.50;69.90;;;;;;4936716;29;20056;-72
2021/09/29 17:58:51;;;;;;;7.85;1.60;;;10.40;70.10;;;;;;4919849;29;20040;-72
2021/09/29 18:01:21;;;;;;;7.38;1.50;;;10.30;70.80;;;;;;4919496;29;20056;-72
2021/09/29 18:04:03;;;;;;;9.05;1.80;;;10.20;71.30;;;;;;4920294;29;20386;-74
2021/09/29 18:06:43;;;;;;;9.43;1.60;;;10.20;71.80;;;;;;4936856;29;20059;-72
2021/09/29 18:09:28;;;;;;;9.50;1.60;;;10.20;71.90;;;;;;4902879;29;20054;-73
2021/09/29 18:11:56;;;;;;;9.95;1.58;;;10.10;72.10;;;;;;4918579;29;20067;-72
2021/09/29 18:14:26;;;;;;;9.25;1.83;;;10.00;72.10;;;;;;4936245;29;20442;-72
2021/09/29 18:16:55;;;;;;;8.32;1.77;;;9.90;72.30;;;;;;4936087;29;20058;-72
2021/09/29 18:19:22;;;;;;;8.65;1.50;;;9.80;72.90;;;;;;4935273;29;20068;-72
2021/09/29 18:21:51;;;;;;;12.48;1.58;;;9.70;73.20;;;;;;4919205;29;20047;-72
2021/09/29 18:24:19;;;;;;;10.15;2.75;;;9.70;73.20;;;;;;4919983;29;20536;-73
2021/09/29 18:26:48;;;;;;;6.22;1.85;;;9.70;73.20;;;;;;4934865;29;20067;-71
2021/09/29 18:29:18;;;;;;;8.70;1.70;;;9.60;73.30;;;;;;4936429;29;20052;-72
2021/09/29 18:31:48;;;;;;;11.02;1.90;;;9.60;73.30;;;;;;4918538;29;20052;-72
2021/09/29 18:34:17;;;;;;;11.63;1.52;;;9.60;73.40;;;;;;4918682;29;20398;-72
2021/09/29 18:36:45;;;;;;;8.90;1.23;;;9.50;73.60;;;;;;4919372;29;20054;-72
2021/09/29 18:39:20;;;;;;;8.27;1.63;;;9.40;74.10;;;;;;4935899;29;20051;-73
2021/09/29 18:41:48;;;;;;;13.05;1.70;;;9.30;74.50;;;;;;4903101;29;20052;-73
2021/09/29 18:44:16;;;;;;;5.80;1.23;;;9.30;75.10;;;;;;4936285;29;20524;-73
2021/09/29 18:46:44;;;;;;;8.77;1.30;;;9.20;75.70;;;;;;4918894;29;20056;-73
2021/09/29 18:49:14;;;;;;;9.50;1.35;;;9.10;76.10;;;;;;4935625;29;20040;-73
2021/09/29 18:51:49;;;;;;;11.60;1.70;;;9.00;76.20;;;;;;4918954;29;20056;-73
2021/09/29 19:07:50;;;;;;;6.28;1.23;;;9.00;75.20;;;;;;4919100;29;20051;-73
2021/09/29 19:10:19;;;;;;;10.35;1.42;;;9.00;75.40;;;;;;4935957;29;20062;-73
2021/09/29 19:12:48;;;;;;;11.30;1.67;;;9.00;75.50;;;;;;4918295;29;20055;-73